Time;durP1;ratioP1;P1;durP2;ratioP2;P2;SDS_P1;SDS_P2;PMS_P1;PMS_P2;Temp;Humidity;BMP_temperature;BMP_pressure;BME280_temperature;BME280_humidity;BME280_pressure;Samples;Min_cycle;Max_cycle;Signal;HPM_P1;HPM_P2
2022/12/23 00:01:56;;;;;;;;;;;;;;;;;;4979773;28;19914;-83
2022/12/23 00:04:22;;;;;;;;;;;;;;;;;;5013972;28;19922;-83
2022/12/23 00:06:47;;;;;;;;;;;;;;;;;;4980538;28;19914;-83
2022/12/23 00:09:13;;;;;;;;;;;;;;;;;;4966884;28;19914;-82
2022/12/23 00:15:04;;;;;;;;;;;;;;;;;;4982318;28;19974;-85
2022/12/23 00:17:08;;;;;;;;;;;;;;;;;;5007084;28;19914;-84
2022/12/23 00:19:33;;;;;;;;;;;;;;;;;;4959092;28;19921;-84
2022/12/23 00:21:59;;;;;;;;;;;;;;;;;;4957351;28;20382;-84
2022/12/23 00:24:24;;;;;;;;;;;;;;;;;;4974595;28;19948;-85
2022/12/23 00:26:49;;;;;;;;;;;;;;;;;;4986113;28;20396;-84
2022/12/23 00:29:15;;;;;;;;;;;;;;;;;;4947988;28;19918;-85
2022/12/23 00:31:40;;;;;;;;;;;;;;;;;;4961971;28;19977;-86
2022/12/23 00:34:06;;;;;;;;;;;;;;;;;;4945071;28;19929;-85
2022/12/23 00:36:31;;;;;;;;;;;;;;;;;;4960676;28;20370;-85
2022/12/23 00:44:26;;;;;;;;;;;;;;;;;;4988842;28;19914;-86
2022/12/23 00:46:51;;;;;;;;;;;;;;;;;;4967053;28;19914;-86
2022/12/23 00:52:01;;;;;;;;;;;;;;;;;;4978056;28;19914;-81
2022/12/23 00:54:26;;;;;;;;;;;;;;;;;;4999239;28;19984;-82
2022/12/23 00:56:52;;;;;;;;;;;;;;;;;;4982413;28;19894;-81
2022/12/23 00:59:17;;;;;;;;;;;;;;;;;;4981059;28;19954;-82
2022/12/23 01:07:11;;;;;;;;;;;;;;;;;;4995682;28;19914;-85
2022/12/23 01:09:37;;;;;;;;;;;;;;;;;;4952691;28;19921;-87
2022/12/23 01:12:02;;;;;;;;;;;;;;;;;;4951327;28;19910;-85
2022/12/23 01:14:28;;;;;;;;;;;;;;;;;;4987675;28;19927;-83
2022/12/23 01:16:53;;;;;;;;;;;;;;;;;;4993857;28;19922;-83
2022/12/23 01:19:18;;;;;;;;;;;;;;;;;;4973456;28;19949;-86
2022/12/23 01:21:44;;;;;;;;;;;;;;;;;;4962974;28;19914;-82
2022/12/23 01:24:09;;;;;;;;;;;;;;;;;;4980744;28;19982;-83
2022/12/23 01:26:35;;;;;;;;;;;;;;;;;;4974903;28;19914;-83
2022/12/23 01:29:00;;;;;;;;;;;;;;;;;;4973321;28;19914;-84
2022/12/23 01:31:26;;;;;;;;;;;;;;;;;;4982664;28;19917;-83
2022/12/23 01:33:51;;;;;;;;;;;;;;;;;;4998800;28;19954;-84
2022/12/23 01:36:17;;;;;;;;;;;;;;;;;;4982657;28;19929;-83
2022/12/23 01:38:42;;;;;;;;;;;;;;;;;;4981707;28;19905;-84
2022/12/23 01:41:07;;;;;;;;;;;;;;;;;;4981368;28;19910;-84
2022/12/23 01:43:33;;;;;;;;;;;;;;;;;;4979930;28;19914;-84
2022/12/23 01:45:58;;;;;;;;;;;;;;;;;;4966437;28;19962;-84
2022/12/23 01:48:24;;;;;;;;;;;;;;;;;;4998621;28;19898;-84
2022/12/23 01:50:49;;;;;;;;;;;;;;;;;;4981421;28;19933;-83
2022/12/23 01:53:15;;;;;;;;;;;;;;;;;;4981465;28;19904;-84
2022/12/23 01:55:40;;;;;;;;;;;;;;;;;;4965773;28;19921;-84
2022/12/23 01:58:18;;;;;;;;;;;;;;;;;;5013821;28;19918;-83
2022/12/23 02:03:41;;;;;;;;;;;;;;;;;;4998032;28;19921;-83
2022/12/23 02:11:36;;;;;;;;;;;;;;;;;;4982521;28;19942;-83
2022/12/23 02:16:49;;;;;;;;;;;;;;;;;;4999130;28;19965;-83
2022/12/23 02:19:15;;;;;;;;;;;;;;;;;;4966505;28;19925;-84
2022/12/23 02:21:40;;;;;;;;;;;;;;;;;;4982570;28;19918;-84
2022/12/23 02:24:06;;;;;;;;;;;;;;;;;;5014475;28;19970;-83
2022/12/23 02:26:31;;;;;;;;;;;;;;;;;;4982202;28;19903;-84
2022/12/23 02:28:57;;;;;;;;;;;;;;;;;;4997034;28;19915;-84
2022/12/23 02:31:22;;;;;;;;;;;;;;;;;;4997814;28;19924;-83
2022/12/23 02:33:48;;;;;;;;;;;;;;;;;;4996551;28;20327;-84
2022/12/23 02:36:13;;;;;;;;;;;;;;;;;;4981083;28;19941;-83
2022/12/23 02:38:39;;;;;;;;;;;;;;;;;;4997072;28;19899;-84
2022/12/23 02:41:05;;;;;;;;;;;;;;;;;;4997514;28;20002;-82
2022/12/23 02:43:30;;;;;;;;;;;;;;;;;;4997278;28;19921;-85
2022/12/23 02:45:55;;;;;;;;;;;;;;;;;;4965630;28;19918;-85
2022/12/23 02:48:21;;;;;;;;;;;;;;;;;;4981286;28;19918;-83
2022/12/23 02:50:47;;;;;;;;;;;;;;;;;;4980770;28;19920;-84
2022/12/23 02:53:12;;;;;;;;;;;;;;;;;;4978732;28;19914;-84
2022/12/23 02:55:38;;;;;;;;;;;;;;;;;;4995488;28;19914;-84
2022/12/23 02:58:03;;;;;;;;;;;;;;;;;;4977900;28;19950;-84
2022/12/23 03:00:29;;;;;;;;;;;;;;;;;;4960283;28;19918;-84
2022/12/23 03:02:54;;;;;;;;;;;;;;;;;;4977817;28;19910;-83
2022/12/23 03:05:20;;;;;;;;;;;;;;;;;;4995422;28;19914;-84
2022/12/23 03:07:45;;;;;;;;;;;;;;;;;;4964301;28;19997;-84
2022/12/23 03:10:10;;;;;;;;;;;;;;;;;;4963655;28;19982;-84
2022/12/23 03:12:36;;;;;;;;;;;;;;;;;;4978784;28;19925;-83
2022/12/23 03:15:02;;;;;;;;;;;;;;;;;;4978643;28;19926;-84
2022/12/23 03:17:27;;;;;;;;;;;;;;;;;;5010242;28;19914;-84
2022/12/23 03:19:53;;;;;;;;;;;;;;;;;;4963739;28;19921;-84
2022/12/23 03:22:18;;;;;;;;;;;;;;;;;;4981380;28;19969;-84
2022/12/23 03:24:44;;;;;;;;;;;;;;;;;;4981131;28;19949;-85
2022/12/23 03:27:10;;;;;;;;;;;;;;;;;;4999294;28;19946;-83
2022/12/23 03:29:35;;;;;;;;;;;;;;;;;;4983757;28;19922;-84
2022/12/23 03:32:01;;;;;;;;;;;;;;;;;;4982927;28;19960;-84
2022/12/23 03:34:26;;;;;;;;;;;;;;;;;;4965011;28;19902;-83
2022/12/23 03:36:52;;;;;;;;;;;;;;;;;;4997927;28;19934;-84
2022/12/23 03:39:20;;;;;;;;;;;;;;;;;;5001224;28;19957;-84
2022/12/23 03:41:45;;;;;;;;;;;;;;;;;;4999747;28;19921;-83
2022/12/23 03:44:11;;;;;;;;;;;;;;;;;;4998295;28;19914;-81
2022/12/23 03:46:37;;;;;;;;;;;;;;;;;;4983798;28;19933;-83
2022/12/23 03:49:02;;;;;;;;;;;;;;;;;;4983925;28;19956;-84
2022/12/23 03:51:28;;;;;;;;;;;;;;;;;;4985757;28;19902;-82
2022/12/23 03:53:56;;;;;;;;;;;;;;;;;;4986279;28;19922;-85
2022/12/23 03:56:22;;;;;;;;;;;;;;;;;;5001915;28;19910;-83
2022/12/23 03:58:50;;;;;;;;;;;;;;;;;;4986580;28;19925;-84
2022/12/23 04:01:16;;;;;;;;;;;;;;;;;;4986063;28;19910;-82
2022/12/23 04:03:44;;;;;;;;;;;;;;;;;;4986014;28;19903;-83
2022/12/23 04:06:10;;;;;;;;;;;;;;;;;;5002267;28;19922;-83
2022/12/23 04:08:36;;;;;;;;;;;;;;;;;;5002401;28;19910;-83
2022/12/23 04:11:09;;;;;;;;;;;;;;;;;;5002092;28;19933;-83
2022/12/23 04:13:35;;;;;;;;;;;;;;;;;;5017509;28;19906;-82
2022/12/23 04:16:04;;;;;;;;;;;;;;;;;;4985706;28;19956;-80
2022/12/23 04:18:32;;;;;;;;;;;;;;;;;;4985723;28;19925;-81
2022/12/23 04:21:01;;;;;;;;;;;;;;;;;;5000057;28;19981;-84
2022/12/23 04:23:26;;;;;;;;;;;;;;;;;;4999100;28;19914;-83
2022/12/23 04:25:52;;;;;;;;;;;;;;;;;;4982098;28;19924;-82
2022/12/23 04:28:20;;;;;;;;;;;;;;;;;;4998325;28;19914;-84
2022/12/23 04:30:45;;;;;;;;;;;;;;;;;;4998673;28;19918;-80
2022/12/23 04:33:11;;;;;;;;;;;;;;;;;;4981836;28;19905;-82
2022/12/23 04:35:37;;;;;;;;;;;;;;;;;;4983502;28;19981;-83
2022/12/23 04:38:05;;;;;;;;;;;;;;;;;;4983202;28;19914;-83
2022/12/23 04:40:31;;;;;;;;;;;;;;;;;;4999099;28;19905;-82
2022/12/23 04:42:57;;;;;;;;;;;;;;;;;;4982005;28;19974;-84
2022/12/23 04:45:26;;;;;;;;;;;;;;;;;;4983964;28;19957;-82
2022/12/23 04:47:58;;;;;;;;;;;;;;;;;;4999522;28;19914;-84
2022/12/23 04:50:23;;;;;;;;;;;;;;;;;;5015856;28;19956;-84
2022/12/23 04:52:49;;;;;;;;;;;;;;;;;;5000136;28;19918;-85
2022/12/23 04:55:15;;;;;;;;;;;;;;;;;;4982923;28;20286;-83
2022/12/23 04:57:40;;;;;;;;;;;;;;;;;;4967701;28;19898;-83
2022/12/23 05:00:06;;;;;;;;;;;;;;;;;;4982840;28;19913;-83
2022/12/23 05:02:32;;;;;;;;;;;;;;;;;;4999085;28;19918;-84
2022/12/23 05:04:57;;;;;;;;;;;;;;;;;;4998604;28;19902;-83
2022/12/23 05:07:23;;;;;;;;;;;;;;;;;;4998889;28;19921;-84
2022/12/23 05:09:49;;;;;;;;;;;;;;;;;;4983868;28;19977;-84
2022/12/23 05:12:14;;;;;;;;;;;;;;;;;;4967562;28;19933;-83
2022/12/23 05:14:40;;;;;;;;;;;;;;;;;;5000105;28;20295;-84
2022/12/23 05:17:06;;;;;;;;;;;;;;;;;;4983830;28;19914;-86
2022/12/23 05:19:34;;;;;;;;;;;;;;;;;;5289523;23;19970;-82
2022/12/23 05:22:00;;;;;;;;;;;;;;;;;;5000739;28;19989;-85
2022/12/23 05:24:31;;;;;;;;;;;;;;;;;;4987069;28;19910;-83
2022/12/23 05:27:02;;;;;;;;;;;;;;;;;;4987835;28;19925;-85
2022/12/23 05:29:39;;;;;;;;;;;;;;;;;;5003343;28;20392;-84
2022/12/23 05:32:04;;;;;;;;;;;;;;;;;;5001115;28;19925;-83
2022/12/23 05:34:30;;;;;;;;;;;;;;;;;;5015626;28;19917;-84
2022/12/23 05:37:02;;;;;;;;;;;;;;;;;;5000868;28;19914;-84
2022/12/23 05:39:30;;;;;;;;;;;;;;;;;;4983291;28;19913;-83
2022/12/23 05:41:55;;;;;;;;;;;;;;;;;;4998124;28;19917;-85
2022/12/23 05:44:26;;;;;;;;;;;;;;;;;;5015021;28;19898;-85
2022/12/23 05:46:55;;;;;;;;;;;;;;;;;;5000320;28;19914;-83
2022/12/23 05:49:26;;;;;;;;;;;;;;;;;;5000107;28;19921;-84
2022/12/23 05:51:59;;;;;;;;;;;;;;;;;;4985998;28;19985;-84
2022/12/23 05:54:25;;;;;;;;;;;;;;;;;;4986662;28;19933;-85
2022/12/23 05:56:51;;;;;;;;;;;;;;;;;;5019015;28;20008;-85
2022/12/23 05:59:17;;;;;;;;;;;;;;;;;;5019570;28;20377;-85
2022/12/23 06:04:27;;;;;;;;;;;;;;;;;;5256276;22;19977;-84
2022/12/23 06:12:27;;;;;;;;;;;;;;;;;;5172457;23;19926;-85
2022/12/23 06:14:55;;;;;;;;;;;;;;;;;;5000803;28;19956;-85
2022/12/23 06:17:22;;;;;;;;;;;;;;;;;;5015446;28;19920;-83
2022/12/23 06:19:49;;;;;;;;;;;;;;;;;;4981590;28;19968;-84
2022/12/23 06:22:20;;;;;;;;;;;;;;;;;;4981750;28;19914;-85
2022/12/23 06:24:52;;;;;;;;;;;;;;;;;;4998843;28;19898;-84
2022/12/23 06:27:20;;;;;;;;;;;;;;;;;;4983217;28;19914;-83
2022/12/23 06:30:23;;;;;;;;;;;;;;;;;;5000439;28;19949;-84
2022/12/23 06:33:12;;;;;;;;;;;;;;;;;;4995709;28;19914;-82
2022/12/23 06:35:41;;;;;;;;;;;;;;;;;;4982873;28;19928;-81
2022/12/23 06:38:07;;;;;;;;;;;;;;;;;;5006784;28;19913;-85
2022/12/23 06:40:37;;;;;;;;;;;;;;;;;;4989701;28;19921;-84
2022/12/23 06:43:07;;;;;;;;;;;;;;;;;;4990232;28;19981;-87
2022/12/23 06:45:41;;;;;;;;;;;;;;;;;;5186195;23;19910;-86
2022/12/23 06:48:13;;;;;;;;;;;;;;;;;;5008789;28;20463;-86
2022/12/23 06:53:21;;;;;;;;;;;;;;;;;;5613731;22;19910;-85
2022/12/23 06:55:49;;;;;;;;;;;;;;;;;;5183074;23;19918;-87
2022/12/23 06:58:21;;;;;;;;;;;;;;;;;;5494117;23;19911;-86
2022/12/23 07:00:47;;;;;;;;;;;;;;;;;;4985818;28;19962;-85
2022/12/23 07:06:06;;;;;;;;;;;;;;;;;;5733854;23;19910;-84
2022/12/23 07:08:31;;;;;;;;;;;;;;;;;;5032909;22;19949;-84
2022/12/23 07:11:03;;;;;;;;;;;;;;;;;;5376109;23;19910;-86
2022/12/23 07:13:30;;;;;;;;;;;;;;;;;;5040835;28;19929;-86
2022/12/23 07:15:58;;;;;;;;;;;;;;;;;;5264389;22;20418;-81
2022/12/23 07:18:24;;;;;;;;;;;;;;;;;;5927924;23;19924;-82
2022/12/23 07:20:50;;;;;;;;;;;;;;;;;;5024280;28;19928;-86
2022/12/23 07:25:52;;;;;;;;;;;;;;;;;;5238049;22;19926;-86
2022/12/23 07:28:21;;;;;;;;;;;;;;;;;;5023432;28;19898;-86
2022/12/23 07:30:46;;;;;;;;;;;;;;;;;;5008227;28;19929;-86
2022/12/23 07:33:12;;;;;;;;;;;;;;;;;;5024822;28;19901;-87
2022/12/23 07:35:38;;;;;;;;;;;;;;;;;;5510592;23;19922;-85
2022/12/23 07:38:06;;;;;;;;;;;;;;;;;;5142370;23;19913;-85
2022/12/23 07:40:34;;;;;;;;;;;;;;;;;;5095869;23;19910;-86
2022/12/23 07:43:04;;;;;;;;;;;;;;;;;;5064023;28;19992;-86
2022/12/23 07:45:30;;;;;;;;;;;;;;;;;;5029727;28;19909;-85
2022/12/23 07:47:58;;;;;;;;;;;;;;;;;;5045408;28;19917;-86
2022/12/23 07:50:28;;;;;;;;;;;;;;;;;;5029576;28;19917;-87
2022/12/23 07:52:54;;;;;;;;;;;;;;;;;;5061065;28;19928;-86
2022/12/23 07:55:24;;;;;;;;;;;;;;;;;;5060739;28;19933;-85
2022/12/23 07:57:50;;;;;;;;;;;;;;;;;;5060907;28;19961;-85
2022/12/23 08:00:22;;;;;;;;;;;;;;;;;;5044323;28;20016;-85
2022/12/23 08:02:56;;;;;;;;;;;;;;;;;;5044766;28;19921;-85
2022/12/23 08:05:32;;;;;;;;;;;;;;;;;;5074664;23;19933;-86
2022/12/23 08:07:58;;;;;;;;;;;;;;;;;;5008081;28;19922;-84
2022/12/23 08:10:24;;;;;;;;;;;;;;;;;;5021245;28;19909;-85
2022/12/23 08:12:56;;;;;;;;;;;;;;;;;;5021173;28;19918;-84
2022/12/23 08:15:22;;;;;;;;;;;;;;;;;;5019978;28;19933;-85
2022/12/23 08:17:55;;;;;;;;;;;;;;;;;;5037194;28;19925;-84
2022/12/23 08:20:29;;;;;;;;;;;;;;;;;;5019609;28;19914;-83
2022/12/23 08:22:57;;;;;;;;;;;;;;;;;;5004205;28;19913;-86
2022/12/23 08:25:30;;;;;;;;;;;;;;;;;;5156063;23;19910;-85
2022/12/23 08:27:58;;;;;;;;;;;;;;;;;;5271628;23;19934;-84
2022/12/23 08:33:08;;;;;;;;;;;;;;;;;;5714013;22;19917;-83
2022/12/23 08:35:33;;;;;;;;;;;;;;;;;;5209081;23;19910;-85
2022/12/23 08:38:02;;;;;;;;;;;;;;;;;;4985695;28;19966;-80
2022/12/23 08:40:28;;;;;;;;;;;;;;;;;;4979111;28;19986;-82
2022/12/23 08:42:54;;;;;;;;;;;;;;;;;;4977968;28;19898;-83
2022/12/23 08:48:18;;;;;;;;;;;;;;;;;;4977106;29;19925;-84
2022/12/23 08:50:55;;;;;;;;;;;;;;;;;;4958804;29;19945;-84
2022/12/23 08:53:41;;;;;;;;;;;;;;;;;;4958611;29;19937;-84
2022/12/23 08:56:16;;;;;;;;;;;;;;;;;;4961703;29;19938;-84
2022/12/23 08:58:44;;;;;;;;;;;;;;;;;;4964833;28;19911;-85
2022/12/23 09:01:12;;;;;;;;;;;;;;;;;;4964318;28;19906;-85
2022/12/23 09:03:41;;;;;;;;;;;;;;;;;;4965410;28;19903;-86
2022/12/23 09:06:09;;;;;;;;;;;;;;;;;;4981590;28;19925;-86
2022/12/23 09:08:35;;;;;;;;;;;;;;;;;;4964899;28;19903;-87
2022/12/23 09:11:00;;;;;;;;;;;;;;;;;;4981205;28;19919;-86
2022/12/23 09:13:26;;;;;;;;;;;;;;;;;;4980991;28;19934;-86
2022/12/23 09:15:54;;;;;;;;;;;;;;;;;;4948842;29;19970;-86
2022/12/23 09:18:20;;;;;;;;;;;;;;;;;;4965632;28;19910;-86
2022/12/23 09:20:48;;;;;;;;;;;;;;;;;;4964411;28;19919;-86
2022/12/23 09:23:21;;;;;;;;;;;;;;;;;;4980482;28;19925;-86
2022/12/23 09:25:46;;;;;;;;;;;;;;;;;;4979428;29;19921;-84
2022/12/23 09:28:12;;;;;;;;;;;;;;;;;;4975112;28;19922;-84
2022/12/23 09:30:38;;;;;;;;;;;;;;;;;;4961633;29;20005;-84
2022/12/23 09:33:04;;;;;;;;;;;;;;;;;;4962007;29;19922;-84
2022/12/23 09:35:30;;;;;;;;;;;;;;;;;;4976989;28;19919;-84
2022/12/23 09:37:58;;;;;;;;;;;;;;;;;;4978520;28;19899;-86
2022/12/23 09:40:24;;;;;;;;;;;;;;;;;;4963160;28;19946;-85
2022/12/23 09:42:50;;;;;;;;;;;;;;;;;;4964387;28;19949;-86
2022/12/23 09:45:16;;;;;;;;;;;;;;;;;;4963021;29;19925;-87
2022/12/23 09:47:42;;;;;;;;;;;;;;;;;;4946713;29;19915;-84
2022/12/23 09:50:08;;;;;;;;;;;;;;;;;;4977995;28;20130;-87
2022/12/23 09:52:33;;;;;;;;;;;;;;;;;;4978882;28;19902;-87
2022/12/23 09:55:02;;;;;;;;;;;;;;;;;;4978710;29;19909;-87
2022/12/23 09:57:28;;;;;;;;;;;;;;;;;;4962977;29;19921;-86
2022/12/23 09:59:56;;;;;;;;;;;;;;;;;;4962923;29;19922;-85
2022/12/23 10:02:22;;;;;;;;;;;;;;;;;;4961140;28;19905;-86
2022/12/23 10:04:48;;;;;;;;;;;;;;;;;;4960946;29;19911;-84
2022/12/23 10:07:14;;;;;;;;;;;;;;;;;;4960383;29;20341;-84
2022/12/23 10:09:42;;;;;;;;;;;;;;;;;;4977553;28;19938;-85
2022/12/23 10:12:17;;;;;;;;;;;;;;;;;;4976793;28;19918;-84
2022/12/23 10:14:53;;;;;;;;;;;;;;;;;;4959207;29;19969;-85
2022/12/23 10:17:21;;;;;;;;;;;;;;;;;;4959111;29;19914;-84
2022/12/23 10:19:47;;;;;;;;;;;;;;;;;;4960234;29;19931;-86
2022/12/23 10:22:13;;;;;;;;;;;;;;;;;;4978526;29;19914;-88
2022/12/23 10:24:42;;;;;;;;;;;;;;;;;;4960816;29;19899;-85
2022/12/23 10:29:46;;;;;;;;;;;;;;;;;;4999840;28;19933;-88
2022/12/23 10:32:17;;;;;;;;;;;;;;;;;;5001976;28;19917;-86
2022/12/23 10:34:46;;;;;;;;;;;;;;;;;;5000327;28;20329;-88
2022/12/23 10:37:12;;;;;;;;;;;;;;;;;;5016501;28;19898;-88
2022/12/23 10:39:38;;;;;;;;;;;;;;;;;;5017392;28;19917;-88
2022/12/23 10:42:03;;;;;;;;;;;;;;;;;;5001488;28;19945;-88
2022/12/23 10:44:29;;;;;;;;;;;;;;;;;;5015981;28;19894;-88
2022/12/23 10:46:55;;;;;;;;;;;;;;;;;;5016712;28;19914;-88
2022/12/23 10:49:20;;;;;;;;;;;;;;;;;;5017070;28;19918;-87
2022/12/23 10:51:46;;;;;;;;;;;;;;;;;;5017381;28;19937;-89
2022/12/23 10:54:12;;;;;;;;;;;;;;;;;;5000550;28;19929;-89
2022/12/23 10:56:39;;;;;;;;;;;;;;;;;;5016603;28;19981;-87
2022/12/23 10:59:07;;;;;;;;;;;;;;;;;;5016629;28;19933;-87
2022/12/23 11:01:32;;;;;;;;;;;;;;;;;;5000796;28;19921;-87
2022/12/23 11:03:58;;;;;;;;;;;;;;;;;;5017475;28;19936;-87
2022/12/23 11:06:24;;;;;;;;;;;;;;;;;;5000988;28;19937;-87
2022/12/23 11:08:50;;;;;;;;;;;;;;;;;;5016574;28;19921;-86
2022/12/23 11:11:16;;;;;;;;;;;;;;;;;;4998800;28;19914;-88
2022/12/23 11:13:42;;;;;;;;;;;;;;;;;;4981207;28;19921;-88
2022/12/23 11:16:08;;;;;;;;;;;;;;;;;;4997939;28;19952;-88
2022/12/23 11:18:33;;;;;;;;;;;;;;;;;;4998010;28;19942;-87
2022/12/23 11:21:02;;;;;;;;;;;;;;;;;;5013772;28;19910;-86
2022/12/23 11:23:28;;;;;;;;;;;;;;;;;;4981789;28;19929;-86
2022/12/23 11:25:54;;;;;;;;;;;;;;;;;;5003413;28;19956;-88
2022/12/23 11:28:24;;;;;;;;;;;;;;;;;;5020384;28;19917;-86
2022/12/23 11:30:50;;;;;;;;;;;;;;;;;;4986377;28;19963;-87
2022/12/23 11:33:19;;;;;;;;;;;;;;;;;;5002246;28;20014;-86
2022/12/23 11:35:45;;;;;;;;;;;;;;;;;;4986995;28;19917;-87
2022/12/23 11:38:13;;;;;;;;;;;;;;;;;;5001598;28;19936;-86
2022/12/23 11:40:38;;;;;;;;;;;;;;;;;;5018139;28;19918;-85
2022/12/23 11:43:06;;;;;;;;;;;;;;;;;;5017836;28;19914;-84
2022/12/23 11:45:32;;;;;;;;;;;;;;;;;;5017264;28;19910;-89
2022/12/23 11:48:02;;;;;;;;;;;;;;;;;;5016805;28;19913;-89
2022/12/23 11:50:27;;;;;;;;;;;;;;;;;;4983411;28;19902;-87
2022/12/23 11:52:53;;;;;;;;;;;;;;;;;;4981533;28;19905;-86
2022/12/23 11:55:19;;;;;;;;;;;;;;;;;;4981372;28;19917;-88
2022/12/23 11:57:45;;;;;;;;;;;;;;;;;;4982650;28;19990;-87
2022/12/23 12:00:10;;;;;;;;;;;;;;;;;;4980653;28;19913;-86
2022/12/23 12:02:39;;;;;;;;;;;;;;;;;;4999324;28;20000;-88
2022/12/23 12:05:07;;;;;;;;;;;;;;;;;;5016016;28;19914;-89
2022/12/23 12:07:35;;;;;;;;;;;;;;;;;;5018586;28;19910;-88
2022/12/23 12:10:01;;;;;;;;;;;;;;;;;;4998944;28;19921;-88
2022/12/23 12:12:27;;;;;;;;;;;;;;;;;;5016490;28;19921;-87
2022/12/23 12:14:53;;;;;;;;;;;;;;;;;;5018026;28;19928;-87
2022/12/23 12:17:25;;;;;;;;;;;;;;;;;;5000410;28;19981;-86
2022/12/23 12:19:51;;;;;;;;;;;;;;;;;;4984606;28;19977;-86
2022/12/23 12:22:17;;;;;;;;;;;;;;;;;;5016542;28;19945;-87
2022/12/23 12:24:48;;;;;;;;;;;;;;;;;;5001439;28;19949;-88
2022/12/23 12:27:16;;;;;;;;;;;;;;;;;;5016354;28;19913;-88
2022/12/23 12:29:45;;;;;;;;;;;;;;;;;;5000276;28;19949;-87
2022/12/23 12:32:14;;;;;;;;;;;;;;;;;;5017049;28;19921;-89
2022/12/23 12:34:39;;;;;;;;;;;;;;;;;;5015213;28;19918;-89
2022/12/23 12:37:09;;;;;;;;;;;;;;;;;;4998596;28;20051;-88
2022/12/23 12:39:34;;;;;;;;;;;;;;;;;;4997587;28;19990;-89
2022/12/23 12:42:00;;;;;;;;;;;;;;;;;;5014963;28;19913;-88
2022/12/23 12:44:26;;;;;;;;;;;;;;;;;;4999357;28;19910;-87
2022/12/23 12:46:51;;;;;;;;;;;;;;;;;;5002160;28;19906;-90
2022/12/23 12:49:17;;;;;;;;;;;;;;;;;;5002460;28;19972;-88
2022/12/23 12:51:42;;;;;;;;;;;;;;;;;;5017885;28;19914;-88
2022/12/23 12:54:08;;;;;;;;;;;;;;;;;;4985277;28;19949;-89
2022/12/23 12:56:34;;;;;;;;;;;;;;;;;;5016765;28;19978;-86
2022/12/23 12:59:00;;;;;;;;;;;;;;;;;;5016128;28;19937;-88
2022/12/23 13:01:28;;;;;;;;;;;;;;;;;;5015609;28;19917;-89
2022/12/23 13:03:56;;;;;;;;;;;;;;;;;;4981992;28;19916;-89
2022/12/23 13:06:22;;;;;;;;;;;;;;;;;;4998892;28;19897;-88
2022/12/23 13:08:48;;;;;;;;;;;;;;;;;;4983099;28;19913;-88
2022/12/23 13:11:14;;;;;;;;;;;;;;;;;;4999122;28;20416;-88
2022/12/23 13:13:40;;;;;;;;;;;;;;;;;;4983192;28;19902;-88
2022/12/23 13:16:05;;;;;;;;;;;;;;;;;;4998488;28;19914;-87
2022/12/23 13:18:31;;;;;;;;;;;;;;;;;;5014129;28;19913;-89
2022/12/23 13:21:02;;;;;;;;;;;;;;;;;;4984930;28;19914;-88
2022/12/23 13:23:28;;;;;;;;;;;;;;;;;;5016954;28;19918;-87
2022/12/23 13:25:53;;;;;;;;;;;;;;;;;;4984271;28;19898;-88
2022/12/23 13:28:22;;;;;;;;;;;;;;;;;;5016638;28;19905;-86
2022/12/23 13:30:47;;;;;;;;;;;;;;;;;;5001285;28;19918;-88
2022/12/23 13:33:13;;;;;;;;;;;;;;;;;;5000878;28;19905;-88
2022/12/23 13:35:39;;;;;;;;;;;;;;;;;;5016659;28;19918;-87
2022/12/23 13:38:07;;;;;;;;;;;;;;;;;;5016199;28;20169;-85
2022/12/23 13:40:33;;;;;;;;;;;;;;;;;;5000693;28;19982;-86
2022/12/23 13:42:58;;;;;;;;;;;;;;;;;;5016224;28;19918;-87
2022/12/23 13:45:24;;;;;;;;;;;;;;;;;;4983794;28;19910;-87
2022/12/23 13:47:49;;;;;;;;;;;;;;;;;;5016266;28;19898;-87
2022/12/23 13:50:15;;;;;;;;;;;;;;;;;;5000891;28;19924;-87
2022/12/23 13:52:41;;;;;;;;;;;;;;;;;;5016683;28;19905;-88
2022/12/23 13:55:07;;;;;;;;;;;;;;;;;;5016243;28;19956;-87
2022/12/23 13:57:32;;;;;;;;;;;;;;;;;;5016318;28;19914;-85
2022/12/23 13:59:58;;;;;;;;;;;;;;;;;;5015680;28;19920;-87
2022/12/23 14:02:24;;;;;;;;;;;;;;;;;;5017403;28;19910;-88
2022/12/23 14:04:49;;;;;;;;;;;;;;;;;;5017251;28;19965;-88
2022/12/23 14:07:15;;;;;;;;;;;;;;;;;;4998847;28;19918;-88
2022/12/23 14:09:40;;;;;;;;;;;;;;;;;;4985074;28;19901;-88
2022/12/23 14:12:06;;;;;;;;;;;;;;;;;;4985805;28;19928;-88
2022/12/23 14:14:32;;;;;;;;;;;;;;;;;;5017200;28;19953;-88
2022/12/23 14:16:57;;;;;;;;;;;;;;;;;;5002023;28;19910;-85
2022/12/23 14:19:23;;;;;;;;;;;;;;;;;;5052107;22;19940;-87
2022/12/23 14:21:49;;;;;;;;;;;;;;;;;;5013498;23;19932;-88
2022/12/23 14:24:14;;;;;;;;;;;;;;;;;;5001739;28;19937;-89
2022/12/23 14:26:41;;;;;;;;;;;;;;;;;;5002384;28;19913;-88
2022/12/23 14:29:07;;;;;;;;;;;;;;;;;;5001657;28;19929;-87
2022/12/23 14:31:36;;;;;;;;;;;;;;;;;;4986114;28;19925;-89
2022/12/23 14:34:01;;;;;;;;;;;;;;;;;;5018279;28;19929;-88
2022/12/23 14:36:27;;;;;;;;;;;;;;;;;;5018488;28;19905;-90
2022/12/23 14:38:56;;;;;;;;;;;;;;;;;;5002309;28;19918;-88
2022/12/23 14:41:22;;;;;;;;;;;;;;;;;;5002278;28;19902;-88
2022/12/23 14:43:50;;;;;;;;;;;;;;;;;;4985376;28;19981;-90
2022/12/23 14:46:18;;;;;;;;;;;;;;;;;;5002079;28;19909;-91
2022/12/23 14:48:44;;;;;;;;;;;;;;;;;;4985638;28;19914;-91
2022/12/23 14:51:10;;;;;;;;;;;;;;;;;;4985737;28;19913;-89
2022/12/23 14:53:35;;;;;;;;;;;;;;;;;;4986161;28;19914;-88
2022/12/23 14:56:01;;;;;;;;;;;;;;;;;;4986011;28;19914;-89
2022/12/23 14:58:26;;;;;;;;;;;;;;;;;;5004905;28;19977;-90
2022/12/23 15:00:52;;;;;;;;;;;;;;;;;;5005728;28;19930;-87
2022/12/23 15:03:17;;;;;;;;;;;;;;;;;;5021354;28;19941;-90
2022/12/23 15:05:43;;;;;;;;;;;;;;;;;;4983788;28;19989;-86
2022/12/23 15:08:09;;;;;;;;;;;;;;;;;;4982805;28;19914;-88
2022/12/23 15:10:35;;;;;;;;;;;;;;;;;;4986672;28;20001;-90
2022/12/23 15:13:01;;;;;;;;;;;;;;;;;;4985651;28;20000;-91
2022/12/23 15:15:27;;;;;;;;;;;;;;;;;;4984572;28;20016;-90
2022/12/23 15:17:54;;;;;;;;;;;;;;;;;;4984415;28;21769;-89
2022/12/23 15:20:21;;;;;;;;;;;;;;;;;;4987081;28;19997;-90
2022/12/23 15:22:47;;;;;;;;;;;;;;;;;;4986244;28;19922;-90
2022/12/23 15:25:13;;;;;;;;;;;;;;;;;;4987667;28;19922;-89
2022/12/23 15:27:39;;;;;;;;;;;;;;;;;;4987973;28;19920;-89
2022/12/23 15:30:05;;;;;;;;;;;;;;;;;;4987514;28;19905;-89
2022/12/23 15:32:31;;;;;;;;;;;;;;;;;;4988290;28;19902;-88
2022/12/23 15:34:57;;;;;;;;;;;;;;;;;;5003675;28;19944;-88
2022/12/23 15:37:22;;;;;;;;;;;;;;;;;;4988060;28;20005;-90
2022/12/23 15:39:49;;;;;;;;;;;;;;;;;;4987558;28;19965;-89
2022/12/23 15:42:15;;;;;;;;;;;;;;;;;;4988100;28;19909;-89
2022/12/23 15:44:40;;;;;;;;;;;;;;;;;;5004127;28;19906;-88
2022/12/23 15:47:06;;;;;;;;;;;;;;;;;;5004466;28;19906;-88
2022/12/23 15:49:32;;;;;;;;;;;;;;;;;;5003750;28;19925;-89
2022/12/23 15:52:00;;;;;;;;;;;;;;;;;;4987277;28;19898;-87
2022/12/23 15:54:26;;;;;;;;;;;;;;;;;;5018635;28;19928;-89
2022/12/23 15:56:52;;;;;;;;;;;;;;;;;;5003656;28;19937;-90
2022/12/23 15:59:18;;;;;;;;;;;;;;;;;;4986251;28;20297;-84
2022/12/23 16:01:43;;;;;;;;;;;;;;;;;;5019635;28;19922;-90
2022/12/23 16:04:09;;;;;;;;;;;;;;;;;;4987923;28;19918;-87
2022/12/23 16:06:35;;;;;;;;;;;;;;;;;;4986901;28;19896;-87
2022/12/23 16:09:01;;;;;;;;;;;;;;;;;;4985639;28;19914;-89
2022/12/23 16:11:28;;;;;;;;;;;;;;;;;;4982201;28;19960;-77
2022/12/23 16:13:53;;;;;;;;;;;;;;;;;;4981130;28;19922;-77
2022/12/23 16:16:19;;;;;;;;;;;;;;;;;;4996417;28;19914;-77
2022/12/23 16:18:44;;;;;;;;;;;;;;;;;;4995461;28;20001;-77
2022/12/23 16:21:10;;;;;;;;;;;;;;;;;;4915433;28;1808797;-77
2022/12/23 16:23:35;;;;;;;;;;;;;;;;;;4995550;28;20415;-77
2022/12/23 16:26:00;;;;;;;;;;;;;;;;;;4995550;28;20384;-77
2022/12/23 16:28:26;;;;;;;;;;;;;;;;;;4978491;28;19914;-77
2022/12/23 16:30:51;;;;;;;;;;;;;;;;;;4995471;28;19914;-78
2022/12/23 16:33:17;;;;;;;;;;;;;;;;;;4995409;28;19945;-78
2022/12/23 16:35:42;;;;;;;;;;;;;;;;;;4995471;28;20013;-78
2022/12/23 16:38:07;;;;;;;;;;;;;;;;;;4978741;28;19914;-76
2022/12/23 16:40:33;;;;;;;;;;;;;;;;;;4996532;28;19914;-77
2022/12/23 16:42:58;;;;;;;;;;;;;;;;;;4995711;28;19916;-85
2022/12/23 16:45:28;;;;;;;;;;;;;;;;;;5004308;28;19909;-88
2022/12/23 16:47:59;;;;;;;;;;;;;;;;;;4987759;28;19902;-89
2022/12/23 16:50:26;;;;;;;;;;;;;;;;;;4987460;28;19920;-88
2022/12/23 16:52:52;;;;;;;;;;;;;;;;;;4986681;28;19898;-88
2022/12/23 16:55:18;;;;;;;;;;;;;;;;;;4986864;28;19909;-87
2022/12/23 16:57:43;;;;;;;;;;;;;;;;;;4987659;28;19920;-90
2022/12/23 17:00:14;;;;;;;;;;;;;;;;;;5002787;28;19954;-87
2022/12/23 17:02:41;;;;;;;;;;;;;;;;;;4987993;28;19937;-90
2022/12/23 17:05:08;;;;;;;;;;;;;;;;;;4988315;28;19901;-90
2022/12/23 17:07:34;;;;;;;;;;;;;;;;;;4988434;28;19908;-90
2022/12/23 17:10:00;;;;;;;;;;;;;;;;;;4987973;28;19902;-88
2022/12/23 17:12:29;;;;;;;;;;;;;;;;;;4988013;28;19897;-91
2022/12/23 17:14:57;;;;;;;;;;;;;;;;;;4987799;28;19980;-90
2022/12/23 17:17:24;;;;;;;;;;;;;;;;;;4987448;28;19918;-90
2022/12/23 17:19:50;;;;;;;;;;;;;;;;;;4987398;28;19980;-90
2022/12/23 17:22:16;;;;;;;;;;;;;;;;;;4985608;28;19921;-89
2022/12/23 17:24:42;;;;;;;;;;;;;;;;;;5018780;28;19914;-89
2022/12/23 17:27:08;;;;;;;;;;;;;;;;;;4986113;28;19929;-89
2022/12/23 17:29:37;;;;;;;;;;;;;;;;;;4985794;28;19963;-88
2022/12/23 17:32:03;;;;;;;;;;;;;;;;;;4974088;23;19998;-88
2022/12/23 17:34:29;;;;;;;;;;;;;;;;;;4964262;29;19943;-90
2022/12/23 17:36:54;;;;;;;;;;;;;;;;;;4964718;29;19957;-90